Time;durP1;ratioP1;P1;durP2;ratioP2;P2;SDS_P1;SDS_P2;PMS_P1;PMS_P2;Temp;Humidity;BMP_temperature;BMP_pressure;BME280_temperature;BME280_humidity;BME280_pressure;Samples;Min_cycle;Max_cycle;Signal;HPM_P1;HPM_P2
2022/10/21 00:02:27;;;;;;;1.75;1.65;;;;;;;14.29;87.87;100317.47;5139695;28;20041;-90
2022/10/21 00:04:57;;;;;;;0.95;0.93;;;;;;;14.26;87.58;100312.34;5118104;28;20039;-91
2022/10/21 00:07:28;;;;;;;1.90;1.77;;;;;;;14.27;86.39;100312.28;5104547;29;20023;-89
2022/10/21 00:09:58;;;;;;;1.08;0.98;;;;;;;14.32;85.98;100304.16;5104996;29;20053;-89
2022/10/21 00:12:30;;;;;;;0.90;0.85;;;;;;;14.31;85.88;100305.91;5120294;29;20087;-90
2022/10/21 00:15:03;;;;;;;1.40;1.30;;;;;;;14.33;84.97;100311.13;5121998;28;20046;-90
2022/10/21 00:17:34;;;;;;;;;;;;;;;14.36;86.01;100324.16;5122659;28;20099;-93
2022/10/21 00:20:07;;;;;;;2.63;2.03;;;;;;;14.43;84.89;100316.81;5099842;29;19925;-91
2022/10/21 00:22:38;;;;;;;1.45;1.33;;;;;;;14.29;84.67;100315.72;5094718;29;20043;-89
2022/10/21 00:25:09;;;;;;;2.55;1.75;;;;;;;14.31;84.88;100307.72;5098654;29;20032;-90
2022/10/21 00:27:39;;;;;;;1.45;1.35;;;;;;;14.34;83.93;100310.19;5120174;29;20055;-90
2022/10/21 00:30:11;;;;;;;1.38;1.27;;;;;;;14.33;84.53;100311.13;5120457;28;20114;-92
2022/10/21 00:32:41;;;;;;;1.35;1.25;;;;;;;14.26;84.35;100314.97;5120148;28;20078;-90
2022/10/21 00:35:12;;;;;;;0.95;0.95;;;;;;;14.29;84.44;100314.84;5102436;29;20085;-90
2022/10/21 00:37:42;;;;;;;1.20;1.10;;;;;;;14.32;84.86;100317.34;5110586;29;20031;-92
2022/10/21 00:40:13;;;;;;;1.63;1.52;;;;;;;14.27;85.79;100308.78;5102038;28;20094;-90
2022/10/21 00:42:43;;;;;;;3.10;0.57;;;;;;;14.27;85.10;100308.78;5084201;29;20032;-90
2022/10/21 00:45:18;;;;;;;0.55;0.55;;;;;;;14.28;85.53;100302.56;5081145;29;20051;-91
2022/10/21 00:47:51;;;;;;;0.85;0.60;;;;;;;14.31;86.33;100292.72;5100245;29;20067;-89
2022/10/21 00:50:28;;;;;;;0.55;0.55;;;;;;;14.24;85.92;100291.31;5111557;28;20044;-91
2022/10/21 00:53:00;;;;;;;0.95;0.95;;;;;;;14.29;85.67;100294.59;5090503;29;20435;-90
2022/10/21 00:55:33;;;;;;;0.68;0.68;;;;;;;14.26;85.53;100288.59;5081832;29;20062;-92
2022/10/21 00:58:04;;;;;;;0.40;0.40;;;;;;;14.31;85.24;100289.25;5097922;28;20043;-92
2022/10/21 01:00:35;;;;;;;3.20;1.23;;;;;;;14.27;85.70;100285.03;5089393;29;20083;-90
2022/10/21 01:03:06;;;;;;;1.30;0.82;;;;;;;14.29;85.26;100276.13;5082704;29;20027;-90
2022/10/21 01:05:39;;;;;;;3.20;1.42;;;;;;;14.30;85.34;100279.59;5070349;29;20051;-88
2022/10/21 01:08:10;;;;;;;0.85;0.85;;;;;;;14.32;84.67;100273.31;5085050;29;20036;-91
2022/10/21 01:10:41;;;;;;;0.50;0.50;;;;;;;14.32;85.01;100254.00;5079511;29;20409;-90
2022/10/21 01:13:17;;;;;;;0.20;0.20;;;;;;;14.33;86.19;100258.34;5094573;29;20048;-91
2022/10/21 01:15:55;;;;;;;1.25;0.57;;;;;;;14.29;85.62;100257.66;5096772;28;20546;-91
2022/10/21 01:18:47;;;;;;;0.35;0.35;;;;;;;14.29;85.07;100247.09;5100936;29;20123;-91
2022/10/21 01:21:31;;;;;;;1.25;1.17;;;;;;;14.30;84.80;100258.50;5099875;28;20682;-90
2022/10/21 01:24:34;;;;;;;0.40;0.40;;;;;;;14.30;84.66;100253.22;5105396;29;20322;-90
2022/10/21 01:27:45;;;;;;;0.30;0.30;;;;;;;14.31;84.38;100242.56;5088080;29;20399;-89
2022/10/21 01:30:16;;;;;;;0.93;0.73;;;;;;;14.32;84.26;100246.94;5087928;28;20054;-90
2022/10/21 01:32:49;;;;;;;4.32;1.70;;;;;;;14.32;84.27;100243.44;5103729;29;20023;-91
2022/10/21 01:35:25;;;;;;;0.45;0.45;;;;;;;14.33;85.61;100234.59;5102164;29;20048;-91
2022/10/21 01:38:13;;;;;;;1.25;1.15;;;;;;;14.22;87.39;100237.75;5132929;28;20053;-92
2022/10/21 01:41:00;;;;;;;0.90;0.65;;;;;;;14.25;85.99;100229.69;5126369;28;20043;-89
2022/10/21 01:43:49;;;;;;;1.08;1.08;;;;;;;14.19;86.33;100232.66;5109448;29;20042;-90
2022/10/21 01:46:46;;;;;;;0.82;0.82;;;;;;;14.15;86.45;100233.72;5115645;28;20039;-90
2022/10/21 01:49:28;;;;;;;1.35;1.25;;;;;;;14.12;86.25;100223.34;5121094;28;20039;-90
2022/10/21 01:52:01;;;;;;;1.02;1.00;;;;;;;14.12;87.25;100218.06;5138416;28;20083;-91
2022/10/21 01:54:36;;;;;;;2.17;0.90;;;;;;;14.04;87.37;100226.34;5111161;28;20054;-91
2022/10/21 01:57:09;;;;;;;0.80;0.80;;;;;;;13.90;88.46;100218.28;5117930;28;20705;-89
2022/10/21 01:59:42;;;;;;;2.92;1.65;;;;;;;13.83;88.83;100215.94;5138880;28;20071;-89
2022/10/21 02:02:14;;;;;;;0.70;0.70;;;;;;;13.89;88.26;100208.66;5118924;28;20032;-92
2022/10/21 02:04:49;;;;;;;1.05;1.05;;;;;;;14.01;86.88;100200.97;5115847;28;20050;-90
2022/10/21 02:07:19;;;;;;;0.80;0.80;;;;;;;13.94;87.69;100198.72;5134284;28;20074;-92
2022/10/21 02:09:50;;;;;;;1.33;1.23;;;;;;;13.92;87.40;100190.03;5122871;28;20035;-91
2022/10/21 02:12:23;;;;;;;2.65;2.25;;;;;;;13.84;87.35;100196.53;5128937;29;20025;-90
2022/10/21 02:14:54;;;;;;;;;;;;;;;13.89;86.66;100190.19;5117097;28;20106;-89
2022/10/21 02:17:26;;;;;;;9.30;1.08;;;;;;;13.91;85.82;100183.06;5123489;28;19921;-90
2022/10/21 02:19:59;;;;;;;4.43;1.77;;;;;;;13.90;85.63;100187.47;5118155;28;20031;-90
2022/10/21 02:22:31;;;;;;;0.65;0.65;;;;;;;13.91;85.81;100183.91;5122234;29;20034;-89
2022/10/21 02:25:24;;;;;;;1.27;1.02;;;;;;;13.90;85.20;100181.34;5109162;28;20039;-89
2022/10/21 02:27:55;;;;;;;0.93;0.90;;;;;;;13.91;85.10;100183.91;5118299;29;20056;-91
2022/10/21 02:30:34;;;;;;;1.02;1.02;;;;;;;13.90;84.80;100176.91;5082552;29;20564;-91
2022/10/21 02:33:17;;;;;;;1.90;1.75;;;;;;;13.90;84.85;100181.34;5121881;28;20032;-92
2022/10/21 02:36:24;;;;;;;0.68;0.68;;;;;;;13.88;84.77;100180.56;5112887;28;20032;-90
2022/10/21 02:39:02;;;;;;;1.83;1.73;;;;;;;13.90;84.47;100183.97;5121574;29;20042;-91
2022/10/21 02:41:36;;;;;;;0.63;0.43;;;;;;;13.91;84.61;100180.41;5117496;29;20056;-93
2022/10/21 02:44:07;;;;;;;0.47;0.47;;;;;;;13.87;84.65;100171.81;5122436;28;20027;-92
2022/10/21 02:46:45;;;;;;;0.43;0.43;;;;;;;13.88;84.42;100183.19;5105787;29;20058;-92
2022/10/21 02:49:16;;;;;;;1.05;0.88;;;;;;;13.88;84.27;100184.06;5141762;28;20086;-93
2022/10/21 02:51:46;;;;;;;0.57;0.57;;;;;;;13.88;84.54;100180.56;5117930;29;20035;-92
2022/10/21 02:54:20;;;;;;;0.40;0.40;;;;;;;13.85;84.13;100171.88;5109430;28;20047;-93
2022/10/21 02:56:51;;;;;;;0.60;0.50;;;;;;;13.88;84.22;100162.09;5130492;28;20050;-93
2022/10/21 02:59:21;;;;;;;1.02;1.02;;;;;;;13.85;84.25;100168.38;5105777;28;20102;-93
2022/10/21 03:01:52;;;;;;;1.20;1.13;;;;;;;13.85;83.84;100169.22;5105437;29;20024;-90
2022/10/21 03:04:22;;;;;;;0.70;0.70;;;;;;;13.83;83.96;100173.75;5117992;28;20241;-89
2022/10/21 03:06:53;;;;;;;3.40;1.23;;;;;;;13.85;83.85;100173.66;5114205;29;20630;-90
2022/10/21 03:09:23;;;;;;;1.17;1.17;;;;;;;13.85;83.82;100184.22;5136277;28;20085;-91
2022/10/21 03:11:54;;;;;;;4.35;0.98;;;;;;;13.85;83.44;100185.06;5111887;29;20038;-90
2022/10/21 03:14:24;;;;;;;1.70;0.77;;;;;;;13.82;83.73;100179.94;5102593;28;20035;-91
2022/10/21 03:16:54;;;;;;;0.50;0.50;;;;;;;13.83;83.62;100188.69;5092276;29;20541;-90
2022/10/21 03:19:25;;;;;;;0.93;0.90;;;;;;;13.81;83.61;100182.63;5112379;28;20043;-89
2022/10/21 03:21:55;;;;;;;0.38;0.38;;;;;;;13.80;83.47;100179.16;5135612;28;20020;-91
2022/10/21 03:24:26;;;;;;;1.75;1.58;;;;;;;13.82;83.13;100169.41;5117945;28;20207;-91
2022/10/21 03:26:56;;;;;;;0.60;0.60;;;;;;;13.82;83.08;100187.84;5108076;29;20132;-90
2022/10/21 03:29:27;;;;;;;0.73;0.68;;;;;;;13.82;82.91;100179.06;5094079;28;20030;-90
2022/10/21 03:31:57;;;;;;;1.38;1.27;;;;;;;13.83;82.60;100171.09;5110778;28;20023;-90
2022/10/21 03:34:27;;;;;;;1.52;1.42;;;;;;;13.80;82.55;100165.13;5103297;28;20494;-90
2022/10/21 03:36:58;;;;;;;0.70;0.70;;;;;;;13.78;82.71;100173.09;5116743;28;20529;-90
2022/10/21 03:39:28;;;;;;;3.92;1.13;;;;;;;13.78;82.46;100167.81;5117089;28;20425;-91
2022/10/21 03:41:59;;;;;;;0.68;0.68;;;;;;;13.79;82.25;100168.69;5098775;29;20024;-90
2022/10/21 03:44:29;;;;;;;1.45;1.45;;;;;;;13.75;82.56;100175.03;5099520;28;20119;-90
2022/10/21 03:47:00;;;;;;;0.60;0.60;;;;;;;13.70;82.75;100177.91;5131096;28;20046;-92
2022/10/21 03:49:30;;;;;;;0.75;0.75;;;;;;;13.70;82.49;100170.00;5084609;28;20232;-91
2022/10/21 03:52:01;;;;;;;0.77;0.77;;;;;;;13.68;82.64;100177.97;5115572;29;20115;-91
2022/10/21 03:54:31;;;;;;;0.50;0.50;;;;;;;13.70;82.32;100177.91;5099242;28;20040;-90
2022/10/21 03:57:02;;;;;;;0.88;0.88;;;;;;;13.68;82.13;100170.06;5109931;29;20024;-90
2022/10/21 03:59:32;;;;;;;0.65;0.65;;;;;;;13.68;81.92;100166.56;5117985;28;20094;-91
2022/10/21 04:02:03;;;;;;;4.57;1.35;;;;;;;13.67;82.40;100173.63;5100733;29;20306;-92
2022/10/21 04:04:33;;;;;;;0.77;0.77;;;;;;;13.67;82.09;100175.44;5132399;28;20459;-91
2022/10/21 04:07:04;;;;;;;0.40;0.40;;;;;;;13.66;82.06;100179.00;5103579;29;20118;-90
2022/10/21 04:09:34;;;;;;;0.65;0.65;;;;;;;13.65;82.30;100177.28;5100951;28;20712;-90
2022/10/21 04:12:05;;;;;;;1.90;0.50;;;;;;;13.68;81.95;100185.88;5099599;29;20038;-90
2022/10/21 04:14:35;;;;;;;0.47;0.47;;;;;;;13.62;83.36;100180.06;5094372;28;20047;-90
2022/10/21 04:17:06;;;;;;;0.73;0.73;;;;;;;13.56;84.51;100175.09;5099369;29;20508;-90
2022/10/21 04:19:36;;;;;;;0.40;0.40;;;;;;;13.48;86.04;100178.94;5118780;28;20310;-90
2022/10/21 04:22:08;;;;;;;0.50;0.50;;;;;;;13.48;86.48;100176.31;5107330;29;20393;-90
2022/10/21 04:24:38;;;;;;;0.85;0.85;;;;;;;13.56;83.88;100188.25;5128799;28;20105;-91
2022/10/21 04:27:09;;;;;;;4.75;1.08;;;;;;;13.56;83.78;100181.19;5136690;28;20501;-91
2022/10/21 04:29:39;;;;;;;4.03;0.95;;;;;;;13.60;84.23;100171.34;5127529;28;20091;-92
2022/10/21 04:32:10;;;;;;;0.47;0.47;;;;;;;13.59;84.17;100177.59;5100023;29;20035;-91
2022/10/21 04:34:40;;;;;;;1.00;0.90;;;;;;;13.56;84.19;100178.56;5092803;28;20074;-91
2022/10/21 04:37:11;;;;;;;0.52;0.52;;;;;;;13.56;84.24;100175.94;5116625;28;20199;-90
2022/10/21 04:39:42;;;;;;;0.57;0.40;;;;;;;13.58;83.78;100178.50;5117918;28;20078;-91
2022/10/21 04:42:12;;;;;;;1.05;1.02;;;;;;;13.56;84.29;100177.72;5118304;28;20401;-91
2022/10/21 04:44:42;;;;;;;0.57;0.57;;;;;;;13.59;83.70;100183.69;5137601;28;20639;-91
2022/10/21 04:47:13;;;;;;;0.60;0.60;;;;;;;13.57;83.96;100175.00;5107233;29;20030;-91
2022/10/21 04:49:43;;;;;;;0.98;0.95;;;;;;;13.59;83.59;100164.41;5114062;28;20175;-87
2022/10/21 04:52:14;;;;;;;9.52;1.55;;;;;;;13.59;83.75;100167.03;5132695;28;20042;-88
2022/10/21 04:54:44;;;;;;;6.57;1.20;;;;;;;13.59;83.55;100157.34;5132988;28;20530;-87
2022/10/21 04:57:15;;;;;;;0.88;0.60;;;;;;;13.65;83.33;100158.81;5109430;28;20569;-88
2022/10/21 04:59:45;;;;;;;0.50;0.50;;;;;;;13.65;83.34;100157.03;5101256;28;20046;-87
2022/10/21 05:02:18;;;;;;;1.00;1.00;;;;;;;13.63;83.72;100160.69;5118118;28;20023;-88
2022/10/21 05:04:49;;;;;;;0.50;0.50;;;;;;;13.61;83.89;100150.22;5110737;29;20043;-88
2022/10/21 05:07:19;;;;;;;1.17;1.10;;;;;;;13.65;83.33;100151.75;5117160;29;20040;-88
2022/10/21 05:09:50;;;;;;;1.63;1.52;;;;;;;13.69;83.19;100142.78;5136167;28;20039;-88
2022/10/21 05:12:20;;;;;;;1.05;0.95;;;;;;;13.65;83.60;100135.94;5130927;28;20561;-88
2022/10/21 05:14:50;;;;;;;0.88;0.88;;;;;;;13.64;83.54;100133.38;5121606;28;20036;-88
2022/10/21 05:17:21;;;;;;;1.90;1.42;;;;;;;13.67;83.20;100133.25;5115354;29;20511;-89
2022/10/21 05:19:51;;;;;;;0.80;0.80;;;;;;;13.68;83.44;100140.19;5104071;28;20051;-89
2022/10/21 05:22:22;;;;;;;0.50;0.50;;;;;;;13.69;83.42;100139.28;5118768;29;20042;-89
2022/10/21 05:24:52;;;;;;;0.57;0.57;;;;;;;13.67;83.68;100130.63;5138268;28;20189;-89
2022/10/21 05:27:23;;;;;;;4.00;2.22;;;;;;;13.71;83.75;100128.69;5121627;29;20070;-89
2022/10/21 05:29:53;;;;;;;0.40;0.40;;;;;;;13.71;84.30;100126.88;5118726;28;20158;-89
2022/10/21 05:32:24;;;;;;;0.70;0.70;;;;;;;13.67;84.23;100115.63;5140203;28;20118;-88
2022/10/21 05:34:55;;;;;;;0.85;0.85;;;;;;;13.70;84.13;100122.53;5137854;28;20492;-89
2022/10/21 05:37:25;;;;;;;0.65;0.63;;;;;;;13.66;84.87;100108.66;5141210;28;20031;-86
2022/10/21 05:39:56;;;;;;;1.70;1.15;;;;;;;13.72;84.30;100104.88;5094371;29;20040;-88
2022/10/21 05:42:26;;;;;;;20.52;0.82;;;;;;;13.67;84.64;100104.25;5106672;29;20031;-89
2022/10/21 05:44:56;;;;;;;0.50;0.50;;;;;;;13.70;84.32;100109.34;5096179;29;20045;-89
2022/10/21 05:47:27;;;;;;;0.65;0.65;;;;;;;13.68;84.90;100100.66;5121648;28;20039;-88
2022/10/21 05:49:57;;;;;;;0.32;0.32;;;;;;;13.72;85.21;100098.75;5098757;29;20043;-89
2022/10/21 05:52:28;;;;;;;0.77;0.77;;;;;;;13.68;87.25;100095.38;5119009;28;20244;-90
2022/10/21 05:54:58;;;;;;;1.42;1.10;;;;;;;13.72;86.91;100090.84;5121579;28;20493;-88
2022/10/21 05:57:36;;;;;;;0.52;0.52;;;;;;;13.68;86.02;100092.75;5112551;29;20034;-88
2022/10/21 06:00:08;;;;;;;0.68;0.68;;;;;;;13.64;87.17;100088.56;5126253;28;20049;-88
2022/10/21 06:02:38;;;;;;;0.60;0.60;;;;;;;13.64;87.17;100096.50;5106826;29;20446;-88
2022/10/21 06:05:09;;;;;;;0.50;0.50;;;;;;;13.67;85.88;100096.34;5127443;28;20055;-88
2022/10/21 06:07:39;;;;;;;0.32;0.32;;;;;;;13.66;85.67;100097.28;5138386;28;20089;-87
2022/10/21 06:10:11;;;;;;;0.70;0.70;;;;;;;13.69;85.34;100099.72;5107319;28;20058;-88
2022/10/21 06:12:42;;;;;;;0.77;0.77;;;;;;;13.68;85.38;100098.03;5151059;28;20138;-88
2022/10/21 06:15:12;;;;;;;0.60;0.60;;;;;;;13.67;85.56;100096.34;5140893;28;20049;-88
2022/10/21 06:17:43;;;;;;;18.02;2.22;;;;;;;13.72;84.31;100093.47;5156272;28;20039;-88
2022/10/21 06:20:14;;;;;;;0.68;0.68;;;;;;;13.68;86.52;100087.47;5135503;28;20051;-89
2022/10/21 06:22:44;;;;;;;0.43;0.43;;;;;;;13.72;84.91;100098.75;5140849;28;20035;-88
2022/10/21 06:25:15;;;;;;;3.13;1.30;;;;;;;13.71;84.97;100092.59;5109961;28;20054;-89
2022/10/21 06:27:45;;;;;;;0.65;0.65;;;;;;;13.69;85.16;100094.47;5138208;28;20034;-88
2022/10/21 06:30:16;;;;;;;0.30;0.30;;;;;;;13.71;84.81;100092.59;5154701;28;20050;-88
2022/10/21 06:32:46;;;;;;;0.32;0.32;;;;;;;13.72;84.59;100099.59;5140808;28;20120;-88
2022/10/21 06:35:17;;;;;;;0.40;0.40;;;;;;;13.74;84.37;100087.19;5155807;28;20023;-88
2022/10/21 06:37:47;;;;;;;0.35;0.35;;;;;;;13.76;84.30;100097.66;5121252;28;20032;-89
2022/10/21 06:40:18;;;;;;;0.50;0.50;;;;;;;13.73;86.58;100106.56;5120549;28;20046;-88
2022/10/21 06:42:49;;;;;;;1.35;1.05;;;;;;;13.76;84.87;100109.03;5121867;28;20027;-88
2022/10/21 06:45:20;;;;;;;0.63;0.63;;;;;;;13.77;84.64;100102.84;5120127;28;20043;-89
2022/10/21 06:47:50;;;;;;;0.63;0.63;;;;;;;13.77;85.51;100102.84;5116826;28;20031;-88
2022/10/21 06:50:21;;;;;;;0.70;0.70;;;;;;;13.76;85.54;100106.41;5104852;29;20048;-89
2022/10/21 06:52:51;;;;;;;1.73;1.40;;;;;;;13.77;85.28;100123.94;5120265;28;20573;-88
2022/10/21 06:55:22;;;;;;;0.40;0.40;;;;;;;13.80;84.69;100134.34;5105386;28;20039;-87
2022/10/21 06:57:53;;;;;;;0.85;0.85;;;;;;;13.81;84.80;100130.78;5128619;28;20282;-88
2022/10/21 07:00:23;;;;;;;0.82;0.82;;;;;;;13.84;85.03;100151.69;5106615;29;20117;-88
2022/10/21 07:02:54;;;;;;;0.90;0.90;;;;;;;13.83;85.11;100171.09;5107751;29;20039;-88
2022/10/21 07:05:25;;;;;;;4.82;1.45;;;;;;;13.82;85.08;100172.03;5091188;28;20040;-88
2022/10/21 07:07:56;;;;;;;1.25;0.88;;;;;;;13.89;85.32;100184.91;5086804;29;20032;-88
2022/10/21 07:10:26;;;;;;;0.80;0.80;;;;;;;13.87;84.78;100176.22;5091071;28;20054;-86
2022/10/21 07:12:57;;;;;;;0.60;0.60;;;;;;;13.92;84.64;100169.78;5090979;29;20123;-88
2022/10/21 07:15:27;;;;;;;0.45;0.45;;;;;;;13.87;85.31;100171.81;5075611;29;20051;-89
2022/10/21 07:17:59;;;;;;;0.68;0.68;;;;;;;13.89;85.13;100184.91;5096025;28;20023;-87
2022/10/21 07:20:32;;;;;;;0.70;0.70;;;;;;;13.88;85.50;100180.56;5091374;29;20407;-86
2022/10/21 07:23:02;;;;;;;5.47;0.90;;;;;;;13.90;85.48;100170.81;5094650;29;20036;-89
2022/10/21 07:25:32;;;;;;;0.63;0.63;;;;;;;13.91;84.73;100189.16;5091427;28;20054;-87
2022/10/21 07:28:03;;;;;;;0.35;0.35;;;;;;;13.96;84.76;100186.31;5111988;28;20067;-87
2022/10/21 07:30:43;;;;;;;0.38;0.38;;;;;;;13.99;84.79;100191.44;5105414;28;20032;-87
2022/10/21 07:33:14;;;;;;;0.30;0.30;;;;;;;13.99;84.77;100197.56;5111907;28;20055;-87
2022/10/21 07:35:45;;;;;;;1.95;1.85;;;;;;;13.98;85.15;100210.84;5116163;28;20095;-88
2022/10/21 07:38:15;;;;;;;51.92;37.38;;;;;;;14.01;85.11;100210.66;5074362;29;20035;-87
2022/10/21 07:40:46;;;;;;;13.57;7.38;;;;;;;14.06;84.44;100207.78;5094126;28;20685;-86
2022/10/21 07:43:16;;;;;;;1.45;1.35;;;;;;;14.09;85.47;100200.59;5109535;29;20039;-86
2022/10/21 07:45:47;;;;;;;1.60;1.50;;;;;;;14.08;84.88;100206.81;5089814;28;20122;-86
2022/10/21 07:48:18;;;;;;;0.50;0.50;;;;;;;14.17;83.77;100205.47;5091780;29;20067;-86
2022/10/21 07:50:49;;;;;;;0.65;0.65;;;;;;;14.12;84.77;100207.50;5090900;29;20043;-87
2022/10/21 07:53:20;;;;;;;0.50;0.50;;;;;;;14.12;84.65;100197.81;5071449;29;20413;-87
2022/10/21 07:56:00;;;;;;;3.65;0.63;;;;;;;14.13;84.24;100188.97;5110313;28;20063;-87
2022/10/21 07:58:31;;;;;;;0.75;0.75;;;;;;;14.13;84.63;100188.97;5094405;29;20055;-87
2022/10/21 08:01:03;;;;;;;1.92;1.48;;;;;;;14.17;84.65;100195.78;5107035;28;20043;-87
2022/10/21 08:03:35;;;;;;;0.40;0.40;;;;;;;14.17;84.47;100201.06;5103305;28;20035;-87
2022/10/21 08:06:07;;;;;;;0.43;0.43;;;;;;;14.18;84.46;100199.28;5110264;28;20338;-86
2022/10/21 08:08:38;;;;;;;1.58;1.48;;;;;;;14.19;84.43;100205.41;5089310;29;20084;-87
2022/10/21 08:11:09;;;;;;;0.77;0.77;;;;;;;14.20;84.38;100210.63;5090584;28;20126;-86
2022/10/21 08:13:40;;;;;;;0.85;0.85;;;;;;;14.20;84.71;100209.75;5090356;29;20039;-87
2022/10/21 08:16:11;;;;;;;0.40;0.40;;;;;;;14.23;85.78;100222.81;5093188;28;20414;-86
2022/10/21 08:18:41;;;;;;;0.77;0.77;;;;;;;14.26;84.97;100219.97;5089447;29;20024;-87
2022/10/21 08:21:11;;;;;;;1.55;0.63;;;;;;;14.24;85.07;100217.44;5075318;29;20036;-87
2022/10/21 08:23:42;;;;;;;0.68;0.68;;;;;;;14.25;84.90;100213.88;5089047;29;20028;-86
2022/10/21 08:26:15;;;;;;;1.63;1.52;;;;;;;14.26;85.62;100209.44;5104268;28;20044;-87
2022/10/21 08:28:45;;;;;;;2.47;1.75;;;;;;;14.32;84.66;100214.41;5091268;29;20036;-87
2022/10/21 08:31:19;;;;;;;0.38;0.38;;;;;;;14.32;85.00;100214.41;5085113;29;20481;-87
2022/10/21 08:33:49;;;;;;;;;;;;;;;14.32;85.27;100212.63;5102963;28;20040;-87
2022/10/21 08:36:23;;;;;;;0.43;0.43;;;;;;;14.37;85.07;100212.38;5073747;29;19929;-86
2022/10/21 08:38:54;;;;;;;0.95;0.95;;;;;;;14.34;85.83;100215.16;5079336;29;20114;-87
2022/10/21 08:41:27;;;;;;;2.03;1.20;;;;;;;14.38;85.35;100213.25;5068129;29;20118;-87
2022/10/21 08:44:10;;;;;;;0.60;0.60;;;;;;;14.39;85.53;100212.31;5095553;29;20039;-87
2022/10/21 08:46:52;;;;;;;0.63;0.60;;;;;;;14.39;86.82;100218.44;5091034;28;20394;-89
2022/10/21 08:49:28;;;;;;;0.75;0.73;;;;;;;14.42;86.92;100215.63;5093521;28;20059;-88
2022/10/21 08:52:05;;;;;;;0.73;0.73;;;;;;;14.47;84.97;100205.72;5095061;29;20043;-88
2022/10/21 08:55:09;;;;;;;1.45;1.10;;;;;;;14.47;88.25;100205.72;5061703;28;20058;-88
2022/10/21 08:57:39;;;;;;;0.57;0.57;;;;;;;14.39;87.41;100205.25;5097480;29;20072;-88
2022/10/21 09:00:17;;;;;;;0.45;0.40;;;;;;;14.43;87.07;100200.66;5098011;28;20063;-88
2022/10/21 09:02:54;;;;;;;2.03;0.50;;;;;;;14.43;88.13;100190.94;5095879;29;20178;-89
2022/10/21 09:05:48;;;;;;;2.72;2.45;;;;;;;14.45;88.03;100193.53;5099496;28;20040;-90
2022/10/21 09:08:41;;;;;;;0.98;0.93;;;;;;;14.47;88.13;100192.50;5063987;29;20395;-89
2022/10/21 09:11:20;;;;;;;4.53;1.58;;;;;;;14.55;87.27;100193.91;5099035;28;20391;-88
2022/10/21 09:14:21;;;;;;;0.60;0.60;;;;;;;14.56;87.89;100207.00;5088087;29;20394;-89
2022/10/21 09:17:11;;;;;;;0.70;0.70;;;;;;;14.61;87.52;100209.41;5082053;29;20114;-89
2022/10/21 09:20:10;;;;;;;1.15;1.02;;;;;;;14.82;85.95;100211.91;5113185;28;20059;-90
2022/10/21 09:22:58;;;;;;;0.52;0.52;;;;;;;14.84;86.30;100217.94;5096275;29;20063;-88
2022/10/21 09:25:39;;;;;;;0.45;0.45;;;;;;;14.85;86.61;100232.84;5095824;28;20545;-89
2022/10/21 09:28:14;;;;;;;0.65;0.65;;;;;;;14.84;85.63;100239.06;5113800;28;20400;-88
2022/10/21 09:30:46;;;;;;;1.80;1.40;;;;;;;14.75;85.96;100243.91;5116096;28;20063;-89
2022/10/21 09:33:33;;;;;;;1.05;0.73;;;;;;;14.72;86.63;100259.91;5103818;29;20024;-90
2022/10/21 09:36:10;;;;;;;0.52;0.52;;;;;;;14.70;87.35;100243.28;5084205;28;20050;-90
2022/10/21 09:38:55;;;;;;;0.60;0.60;;;;;;;14.70;88.18;100245.94;5090054;29;20119;-89
2022/10/21 09:41:34;;;;;;;0.45;0.45;;;;;;;14.72;87.05;100261.69;5099847;28;20043;-86
2022/10/21 09:44:05;;;;;;;9.93;1.00;;;;;;;14.72;88.06;100265.19;5106468;28;20122;-89
2022/10/21 09:46:35;;;;;;;0.70;0.70;;;;;;;14.73;88.03;100264.28;5080106;29;20147;-87
2022/10/21 09:49:20;;;;;;;0.57;0.57;;;;;;;14.77;88.56;100257.88;5096621;29;20028;-88
2022/10/21 09:51:50;;;;;;;2.28;1.42;;;;;;;14.77;87.35;100262.31;5117134;28;20319;-88
2022/10/21 09:54:24;;;;;;;1.48;1.38;;;;;;;14.78;87.86;100270.16;5124904;28;20062;-90
2022/10/21 09:57:03;;;;;;;5.70;1.98;;;;;;;14.79;87.82;100261.31;5144630;28;20027;-90
2022/10/21 09:59:36;;;;;;;1.05;0.77;;;;;;;14.81;87.62;100268.28;5131226;28;20048;-89
2022/10/21 10:02:13;;;;;;;0.70;0.70;;;;;;;14.79;88.67;100263.94;5097762;29;20039;-89
2022/10/21 10:04:44;;;;;;;0.30;0.30;;;;;;;14.87;89.10;100260.91;5113837;28;20043;-89
2022/10/21 10:07:35;;;;;;;0.63;0.63;;;;;;;14.90;88.41;100268.66;5105621;28;20035;-89
2022/10/21 10:10:30;;;;;;;8.20;7.53;;;;;;;14.84;88.92;100257.56;5132715;28;20131;-90
2022/10/21 10:13:00;;;;;;;11.20;10.07;;;;;;;14.86;88.26;100261.84;5108926;29;20035;-90
2022/10/21 10:15:34;;;;;;;1.08;0.98;;;;;;;14.91;88.77;100266.88;5108213;29;20066;-89
2022/10/21 10:18:19;;;;;;;0.25;0.25;;;;;;;14.89;88.12;100285.44;5139898;28;20023;-88
2022/10/21 10:21:12;;;;;;;1.25;1.15;;;;;;;14.90;88.16;100278.38;5121775;28;20035;-88
2022/10/21 10:23:52;;;;;;;7.88;1.20;;;;;;;14.91;88.23;100277.44;5138782;28;20031;-87
2022/10/21 10:26:26;;;;;;;1.45;0.40;;;;;;;14.89;88.71;100274.03;5118577;28;20085;-88
2022/10/21 10:29:08;;;;;;;0.30;0.30;;;;;;;14.89;88.99;100282.78;5100517;29;20043;-88
2022/10/21 10:31:45;;;;;;;0.30;0.30;;;;;;;14.90;89.25;100287.16;5106011;28;20095;-88
2022/10/21 10:34:37;;;;;;;0.50;0.50;;;;;;;14.94;89.01;100287.84;5149183;28;20011;-90
2022/10/21 10:37:23;;;;;;;0.30;0.30;;;;;;;14.97;89.13;100289.47;5117727;29;20039;-90
2022/10/21 10:39:56;;;;;;;0.30;0.30;;;;;;;14.97;88.58;100285.06;5123094;28;20092;-92
2022/10/21 10:42:32;;;;;;;0.30;0.30;;;;;;;15.01;88.51;100286.59;5110289;28;20016;-91
2022/10/21 10:45:11;;;;;;;0.55;0.47;;;;;;;15.00;88.63;100295.44;5109492;28;21408;-88
2022/10/21 10:47:47;;;;;;;0.40;0.40;;;;;;;15.06;88.95;100294.25;5140557;28;20050;-89
2022/10/21 10:50:36;;;;;;;0.57;0.57;;;;;;;15.03;88.53;100292.66;5119134;29;20035;-88
2022/10/21 10:53:15;;;;;;;0.63;0.50;;;;;;;15.11;88.71;100302.81;5107742;29;20031;-87
2022/10/21 10:55:53;;;;;;;0.20;0.20;;;;;;;15.06;88.94;100300.41;5121401;28;20039;-88
2022/10/21 10:58:27;;;;;;;1.77;0.40;;;;;;;15.12;88.49;100299.25;5152115;28;20043;-88
2022/10/21 11:01:01;;;;;;;0.95;0.95;;;;;;;15.16;89.20;100299.94;5139520;28;20067;-89
2022/10/21 11:03:50;;;;;;;0.30;0.30;;;;;;;15.18;90.06;100290.13;5106169;29;20031;-87
2022/10/21 11:06:49;;;;;;;0.57;0.57;;;;;;;15.23;89.38;100286.31;5123538;28;20121;-87
2022/10/21 11:09:20;;;;;;;0.50;0.50;;;;;;;15.32;88.79;100286.75;5090534;28;20513;-88
2022/10/21 11:11:53;;;;;;;0.30;0.30;;;;;;;15.38;89.84;100287.28;5117772;28;20035;-87
2022/10/21 11:14:24;;;;;;;0.30;0.30;;;;;;;15.45;90.31;100285.16;5113849;28;20038;-87
2022/10/21 11:16:59;;;;;;;0.70;0.70;;;;;;;15.48;89.23;100278.84;5079144;29;20034;-88
2022/10/21 11:19:44;;;;;;;0.70;0.68;;;;;;;15.62;88.93;100280.75;5094488;28;20509;-89
2022/10/21 11:22:26;;;;;;;0.63;0.63;;;;;;;15.63;89.11;100275.34;5105200;29;20039;-89
2022/10/21 11:25:12;;;;;;;0.30;0.30;;;;;;;15.69;89.19;100268.88;5127618;28;20417;-88
2022/10/21 11:27:52;;;;;;;0.22;0.22;;;;;;;15.74;88.75;100272.09;5132118;28;20035;-89
2022/10/21 11:30:42;;;;;;;3.30;1.50;;;;;;;15.80;88.41;100273.56;5113346;28;20075;-88
2022/10/21 11:33:34;;;;;;;0.40;0.40;;;;;;;15.87;88.11;100274.94;5107038;28;20035;-88
2022/10/21 11:36:43;;;;;;;0.30;0.30;;;;;;;15.95;88.38;100271.88;5109872;28;20043;-88
2022/10/21 11:39:47;;;;;;;17.23;0.95;;;;;;;16.01;88.46;100272.38;5110324;28;20410;-86
2022/10/21 11:42:30;;;;;;;0.40;0.40;;;;;;;16.15;88.29;100278.69;5079483;29;20036;-87
2022/10/21 11:45:21;;;;;;;0.30;0.30;;;;;;;16.17;87.72;100275.00;5062356;29;20141;-86
2022/10/21 11:47:57;;;;;;;0.47;0.47;;;;;;;16.32;87.36;100275.88;5075233;29;20040;-87
2022/10/21 11:50:34;;;;;;;6.80;0.52;;;;;;;16.36;87.30;100269.47;5106329;28;20128;-89
2022/10/21 11:53:23;;;;;;;0.55;0.55;;;;;;;16.43;87.42;100261.16;5116982;29;20697;-87
2022/10/21 11:56:09;;;;;;;0.40;0.40;;;;;;;16.51;87.08;100257.13;5110319;28;20055;-89
2022/10/21 11:58:49;;;;;;;0.40;0.40;;;;;;;16.72;86.60;100253.28;5099226;28;20127;-90
2022/10/21 12:01:39;;;;;;;0.20;0.20;;;;;;;16.84;85.93;100261.34;5079602;29;20042;-88
2022/10/21 12:04:18;;;;;;;0.32;0.32;;;;;;;16.85;85.90;100256.91;5095675;29;20126;-89